sensor_id;sensor_type;location;lat;lon;timestamp;P1;durP1;ratioP1;P2;durP2;ratioP2
19705;SDS011;10003;52.506;4.700;2023-02-15T00:01:45;5.07;;;4.87;;
19705;SDS011;10003;52.506;4.700;2023-02-15T00:04:15;4.93;;;4.13;;
19705;SDS011;10003;52.506;4.700;2023-02-15T00:06:44;3.80;;;2.50;;
19705;SDS011;10003;52.506;4.700;2023-02-15T00:09:12;5.33;;;5.13;;
19705;SDS011;10003;52.506;4.700;2023-02-15T00:11:41;8.93;;;7.33;;
19705;SDS011;10003;52.506;4.700;2023-02-15T00:14:19;15.03;;;10.50;;
19705;SDS011;10003;52.506;4.700;2023-02-15T00:16:48;7.60;;;6.90;;
19705;SDS011;10003;52.506;4.700;2023-02-15T00:19:17;5.53;;;5.10;;
19705;SDS011;10003;52.506;4.700;2023-02-15T00:21:46;4.10;;;3.90;;
19705;SDS011;10003;52.506;4.700;2023-02-15T00:24:16;6.13;;;5.60;;
19705;SDS011;10003;52.506;4.700;2023-02-15T00:26:45;12.10;;;7.27;;
19705;SDS011;10003;52.506;4.700;2023-02-15T00:29:14;3.23;;;2.70;;
19705;SDS011;10003;52.506;4.700;2023-02-15T00:31:45;1.20;;;1.20;;
19705;SDS011;10003;52.506;4.700;2023-02-15T00:34:15;3.47;;;3.27;;
19705;SDS011;10003;52.506;4.700;2023-02-15T00:36:44;13.80;;;5.87;;
19705;SDS011;10003;52.506;4.700;2023-02-15T00:39:12;36.30;;;8.97;;
19705;SDS011;10003;52.506;4.700;2023-02-15T00:41:41;6.20;;;5.40;;
19705;SDS011;10003;52.506;4.700;2023-02-15T00:44:09;16.60;;;6.47;;
19705;SDS011;10003;52.506;4.700;2023-02-15T00:46:38;2.23;;;2.13;;
19705;SDS011;10003;52.506;4.700;2023-02-15T00:49:08;7.50;;;6.13;;
19705;SDS011;10003;52.506;4.700;2023-02-15T00:51:37;4.40;;;4.03;;
19705;SDS011;10003;52.506;4.700;2023-02-15T00:54:05;3.43;;;2.67;;
19705;SDS011;10003;52.506;4.700;2023-02-15T00:56:34;3.20;;;2.90;;
19705;SDS011;10003;52.506;4.700;2023-02-15T00:59:02;4.60;;;4.30;;
19705;SDS011;10003;52.506;4.700;2023-02-15T01:01:31;5.43;;;5.03;;
19705;SDS011;10003;52.506;4.700;2023-02-15T01:03:59;1.57;;;1.47;;
19705;SDS011;10003;52.506;4.700;2023-02-15T01:06:29;7.20;;;6.50;;
19705;SDS011;10003;52.506;4.700;2023-02-15T01:08:58;4.10;;;3.80;;
19705;SDS011;10003;52.506;4.700;2023-02-15T01:11:26;6.20;;;5.80;;
19705;SDS011;10003;52.506;4.700;2023-02-15T01:13:55;1.90;;;1.80;;
19705;SDS011;10003;52.506;4.700;2023-02-15T01:16:25;4.37;;;4.07;;
19705;SDS011;10003;52.506;4.700;2023-02-15T01:18:54;4.30;;;3.93;;
19705;SDS011;10003;52.506;4.700;2023-02-15T01:21:23;3.50;;;3.23;;
19705;SDS011;10003;52.506;4.700;2023-02-15T01:23:53;3.30;;;3.10;;
19705;SDS011;10003;52.506;4.700;2023-02-15T01:26:22;4.13;;;3.73;;
19705;SDS011;10003;52.506;4.700;2023-02-15T01:28:50;1.57;;;1.57;;
19705;SDS011;10003;52.506;4.700;2023-02-15T01:31:20;8.50;;;7.37;;
19705;SDS011;10003;52.506;4.700;2023-02-15T01:33:49;5.50;;;5.10;;
19705;SDS011;10003;52.506;4.700;2023-02-15T01:36:18;4.80;;;4.33;;
19705;SDS011;10003;52.506;4.700;2023-02-15T01:38:46;1.73;;;1.73;;
19705;SDS011;10003;52.506;4.700;2023-02-15T01:41:17;7.10;;;4.80;;
19705;SDS011;10003;52.506;4.700;2023-02-15T01:43:50;1.63;;;1.60;;
19705;SDS011;10003;52.506;4.700;2023-02-15T01:46:20;1.17;;;1.13;;
19705;SDS011;10003;52.506;4.700;2023-02-15T01:48:50;27.50;;;8.00;;
19705;SDS011;10003;52.506;4.700;2023-02-15T01:51:21;2.93;;;2.73;;
19705;SDS011;10003;52.506;4.700;2023-02-15T01:53:50;4.23;;;3.63;;
19705;SDS011;10003;52.506;4.700;2023-02-15T01:56:21;1.20;;;1.20;;
19705;SDS011;10003;52.506;4.700;2023-02-15T01:58:51;5.33;;;4.17;;
19705;SDS011;10003;52.506;4.700;2023-02-15T02:01:21;8.10;;;3.60;;
19705;SDS011;10003;52.506;4.700;2023-02-15T02:03:53;4.87;;;4.47;;
19705;SDS011;10003;52.506;4.700;2023-02-15T02:06:25;2.57;;;2.47;;
19705;SDS011;10003;52.506;4.700;2023-02-15T02:08:54;2.70;;;2.60;;
19705;SDS011;10003;52.506;4.700;2023-02-15T02:11:25;5.13;;;3.83;;
19705;SDS011;10003;52.506;4.700;2023-02-15T02:13:54;6.90;;;6.30;;
19705;SDS011;10003;52.506;4.700;2023-02-15T02:16:23;5.53;;;4.30;;
19705;SDS011;10003;52.506;4.700;2023-02-15T02:18:57;3.67;;;3.47;;
19705;SDS011;10003;52.506;4.700;2023-02-15T02:24:23;6.47;;;5.27;;
19705;SDS011;10003;52.506;4.700;2023-02-15T02:29:56;6.33;;;5.93;;
19705;SDS011;10003;52.506;4.700;2023-02-15T02:35:16;5.10;;;4.70;;
19705;SDS011;10003;52.506;4.700;2023-02-15T02:37:48;1.90;;;1.77;;
19705;SDS011;10003;52.506;4.700;2023-02-15T02:40:19;4.00;;;3.73;;
19705;SDS011;10003;52.506;4.700;2023-02-15T02:42:55;5.70;;;5.13;;
19705;SDS011;10003;52.506;4.700;2023-02-15T02:45:28;2.80;;;2.70;;
19705;SDS011;10003;52.506;4.700;2023-02-15T02:47:59;3.57;;;3.27;;
19705;SDS011;10003;52.506;4.700;2023-02-15T02:50:31;19.47;;;5.33;;
19705;SDS011;10003;52.506;4.700;2023-02-15T02:52:59;5.33;;;4.83;;
19705;SDS011;10003;52.506;4.700;2023-02-15T02:55:28;6.70;;;4.30;;
19705;SDS011;10003;52.506;4.700;2023-02-15T02:57:59;9.57;;;6.40;;
19705;SDS011;10003;52.506;4.700;2023-02-15T03:00:31;49.73;;;16.10;;
19705;SDS011;10003;52.506;4.700;2023-02-15T03:03:00;3.47;;;3.27;;
19705;SDS011;10003;52.506;4.700;2023-02-15T03:05:33;5.87;;;5.20;;
19705;SDS011;10003;52.506;4.700;2023-02-15T03:08:02;5.83;;;4.87;;
19705;SDS011;10003;52.506;4.700;2023-02-15T03:10:36;2.17;;;2.07;;
19705;SDS011;10003;52.506;4.700;2023-02-15T03:13:05;0.80;;;0.80;;
19705;SDS011;10003;52.506;4.700;2023-02-15T03:15:34;2.07;;;2.03;;
19705;SDS011;10003;52.506;4.700;2023-02-15T03:18:22;8.93;;;5.60;;
19705;SDS011;10003;52.506;4.700;2023-02-15T03:20:54;12.23;;;4.33;;
19705;SDS011;10003;52.506;4.700;2023-02-15T03:23:23;3.67;;;3.40;;
19705;SDS011;10003;52.506;4.700;2023-02-15T03:25:55;5.40;;;4.90;;
19705;SDS011;10003;52.506;4.700;2023-02-15T03:28:27;4.80;;;4.43;;
19705;SDS011;10003;52.506;4.700;2023-02-15T03:30:57;5.73;;;5.17;;
19705;SDS011;10003;52.506;4.700;2023-02-15T03:33:27;6.67;;;6.03;;
19705;SDS011;10003;52.506;4.700;2023-02-15T03:36:00;8.43;;;6.70;;
19705;SDS011;10003;52.506;4.700;2023-02-15T03:38:32;48.77;;;8.73;;
19705;SDS011;10003;52.506;4.700;2023-02-15T03:41:02;42.27;;;8.57;;
19705;SDS011;10003;52.506;4.700;2023-02-15T03:43:38;7.10;;;5.03;;
19705;SDS011;10003;52.506;4.700;2023-02-15T03:46:11;4.43;;;4.13;;
19705;SDS011;10003;52.506;4.700;2023-02-15T03:48:43;10.70;;;7.70;;
19705;SDS011;10003;52.506;4.700;2023-02-15T03:51:14;7.93;;;6.77;;
19705;SDS011;10003;52.506;4.700;2023-02-15T03:54:05;4.97;;;3.20;;
19705;SDS011;10003;52.506;4.700;2023-02-15T03:56:36;3.37;;;2.90;;
19705;SDS011;10003;52.506;4.700;2023-02-15T03:59:05;4.23;;;3.93;;
19705;SDS011;10003;52.506;4.700;2023-02-15T04:01:54;6.43;;;5.67;;
19705;SDS011;10003;52.506;4.700;2023-02-15T04:04:28;2.77;;;2.57;;
19705;SDS011;10003;52.506;4.700;2023-02-15T04:06:59;160.27;;;24.67;;
19705;SDS011;10003;52.506;4.700;2023-02-15T04:09:27;26.67;;;10.00;;
19705;SDS011;10003;52.506;4.700;2023-02-15T04:12:13;68.40;;;14.33;;
19705;SDS011;10003;52.506;4.700;2023-02-15T04:14:42;10.93;;;6.07;;
19705;SDS011;10003;52.506;4.700;2023-02-15T04:17:27;2.03;;;1.93;;
19705;SDS011;10003;52.506;4.700;2023-02-15T04:19:56;9.53;;;7.20;;
19705;SDS011;10003;52.506;4.700;2023-02-15T04:22:43;4.33;;;4.07;;
19705;SDS011;10003;52.506;4.700;2023-02-15T04:25:29;2.40;;;2.30;;
19705;SDS011;10003;52.506;4.700;2023-02-15T04:27:58;4.63;;;4.20;;
19705;SDS011;10003;52.506;4.700;2023-02-15T04:30:26;3.37;;;3.17;;
19705;SDS011;10003;52.506;4.700;2023-02-15T04:32:55;5.53;;;5.10;;
19705;SDS011;10003;52.506;4.700;2023-02-15T04:35:23;2.90;;;2.70;;
19705;SDS011;10003;52.506;4.700;2023-02-15T04:37:54;3.47;;;3.17;;
19705;SDS011;10003;52.506;4.700;2023-02-15T04:40:23;3.33;;;3.17;;
19705;SDS011;10003;52.506;4.700;2023-02-15T04:42:51;4.67;;;4.10;;
19705;SDS011;10003;52.506;4.700;2023-02-15T04:45:19;11.63;;;7.20;;
19705;SDS011;10003;52.506;4.700;2023-02-15T04:47:48;6.00;;;5.00;;
19705;SDS011;10003;52.506;4.700;2023-02-15T04:50:16;4.57;;;3.90;;
19705;SDS011;10003;52.506;4.700;2023-02-15T04:52:45;3.33;;;3.13;;
19705;SDS011;10003;52.506;4.700;2023-02-15T04:55:15;5.60;;;3.80;;
19705;SDS011;10003;52.506;4.700;2023-02-15T04:57:46;2.03;;;1.93;;
19705;SDS011;10003;52.506;4.700;2023-02-15T05:00:15;3.43;;;3.27;;
19705;SDS011;10003;52.506;4.700;2023-02-15T05:02:44;3.60;;;3.40;;
19705;SDS011;10003;52.506;4.700;2023-02-15T05:05:12;1.57;;;1.57;;
19705;SDS011;10003;52.506;4.700;2023-02-15T05:07:41;2.13;;;2.03;;
19705;SDS011;10003;52.506;4.700;2023-02-15T05:10:09;4.70;;;4.40;;
19705;SDS011;10003;52.506;4.700;2023-02-15T05:12:39;6.97;;;6.23;;
19705;SDS011;10003;52.506;4.700;2023-02-15T05:15:08;4.93;;;3.23;;
19705;SDS011;10003;52.506;4.700;2023-02-15T05:17:37;10.53;;;4.63;;
19705;SDS011;10003;52.506;4.700;2023-02-15T05:20:06;3.57;;;3.37;;
19705;SDS011;10003;52.506;4.700;2023-02-15T05:22:34;8.90;;;5.87;;
19705;SDS011;10003;52.506;4.700;2023-02-15T05:25:03;3.43;;;3.20;;
19705;SDS011;10003;52.506;4.700;2023-02-15T05:27:53;5.43;;;5.07;;
19705;SDS011;10003;52.506;4.700;2023-02-15T05:30:39;3.23;;;2.43;;
19705;SDS011;10003;52.506;4.700;2023-02-15T05:33:07;0.77;;;0.77;;
19705;SDS011;10003;52.506;4.700;2023-02-15T05:35:36;3.73;;;3.43;;
19705;SDS011;10003;52.506;4.700;2023-02-15T05:38:04;4.07;;;3.73;;
19705;SDS011;10003;52.506;4.700;2023-02-15T05:40:33;3.53;;;3.33;;
19705;SDS011;10003;52.506;4.700;2023-02-15T05:43:03;1.00;;;1.00;;
19705;SDS011;10003;52.506;4.700;2023-02-15T05:45:31;1.53;;;1.53;;
19705;SDS011;10003;52.506;4.700;2023-02-15T05:47:59;2.30;;;2.23;;
19705;SDS011;10003;52.506;4.700;2023-02-15T05:50:28;9.00;;;4.60;;
19705;SDS011;10003;52.506;4.700;2023-02-15T05:52:56;3.60;;;3.30;;
19705;SDS011;10003;52.506;4.700;2023-02-15T05:55:25;20.90;;;14.37;;
19705;SDS011;10003;52.506;4.700;2023-02-15T05:57:53;35.23;;;20.23;;
19705;SDS011;10003;52.506;4.700;2023-02-15T06:00:23;22.87;;;14.73;;
19705;SDS011;10003;52.506;4.700;2023-02-15T06:02:52;67.30;;;37.70;;
19705;SDS011;10003;52.506;4.700;2023-02-15T06:05:20;77.53;;;43.13;;
19705;SDS011;10003;52.506;4.700;2023-02-15T06:07:49;71.20;;;41.67;;
19705;SDS011;10003;52.506;4.700;2023-02-15T06:10:17;63.97;;;36.00;;
19705;SDS011;10003;52.506;4.700;2023-02-15T06:12:46;84.20;;;47.13;;
19705;SDS011;10003;52.506;4.700;2023-02-15T06:15:15;89.93;;;52.23;;
19705;SDS011;10003;52.506;4.700;2023-02-15T06:17:44;57.93;;;37.07;;
19705;SDS011;10003;52.506;4.700;2023-02-15T06:20:13;89.47;;;45.77;;
19705;SDS011;10003;52.506;4.700;2023-02-15T06:22:41;108.93;;;60.80;;
19705;SDS011;10003;52.506;4.700;2023-02-15T06:25:10;84.43;;;45.87;;
19705;SDS011;10003;52.506;4.700;2023-02-15T06:27:40;45.67;;;26.33;;
19705;SDS011;10003;52.506;4.700;2023-02-15T06:30:09;114.47;;;71.57;;
19705;SDS011;10003;52.506;4.700;2023-02-15T06:32:38;107.37;;;65.53;;
19705;SDS011;10003;52.506;4.700;2023-02-15T06:35:09;120.67;;;69.80;;
19705;SDS011;10003;52.506;4.700;2023-02-15T06:37:38;100.00;;;55.57;;
19705;SDS011;10003;52.506;4.700;2023-02-15T06:40:07;97.77;;;56.60;;
19705;SDS011;10003;52.506;4.700;2023-02-15T06:42:35;96.33;;;49.33;;
19705;SDS011;10003;52.506;4.700;2023-02-15T06:45:04;103.80;;;60.07;;
19705;SDS011;10003;52.506;4.700;2023-02-15T06:47:33;96.33;;;53.57;;
19705;SDS011;10003;52.506;4.700;2023-02-15T06:50:02;68.87;;;39.47;;
19705;SDS011;10003;52.506;4.700;2023-02-15T06:52:32;112.30;;;63.70;;
19705;SDS011;10003;52.506;4.700;2023-02-15T06:55:01;104.10;;;59.70;;
19705;SDS011;10003;52.506;4.700;2023-02-15T06:57:29;88.30;;;49.87;;
19705;SDS011;10003;52.506;4.700;2023-02-15T06:59:58;96.83;;;54.83;;
19705;SDS011;10003;52.506;4.700;2023-02-15T07:02:27;107.00;;;58.27;;
19705;SDS011;10003;52.506;4.700;2023-02-15T07:04:56;76.77;;;45.33;;
19705;SDS011;10003;52.506;4.700;2023-02-15T07:07:24;92.13;;;48.77;;
19705;SDS011;10003;52.506;4.700;2023-02-15T07:09:54;85.17;;;48.73;;
19705;SDS011;10003;52.506;4.700;2023-02-15T07:12:22;85.20;;;46.73;;
19705;SDS011;10003;52.506;4.700;2023-02-15T07:15:09;81.33;;;47.97;;
19705;SDS011;10003;52.506;4.700;2023-02-15T07:17:37;108.53;;;61.53;;
19705;SDS011;10003;52.506;4.700;2023-02-15T07:20:07;101.40;;;56.87;;
19705;SDS011;10003;52.506;4.700;2023-02-15T07:22:35;48.93;;;27.43;;
19705;SDS011;10003;52.506;4.700;2023-02-15T07:25:06;62.70;;;37.03;;
19705;SDS011;10003;52.506;4.700;2023-02-15T07:27:35;52.77;;;32.27;;
19705;SDS011;10003;52.506;4.700;2023-02-15T07:30:04;87.43;;;46.73;;
19705;SDS011;10003;52.506;4.700;2023-02-15T07:32:34;69.60;;;40.10;;
19705;SDS011;10003;52.506;4.700;2023-02-15T07:35:02;58.83;;;34.13;;
19705;SDS011;10003;52.506;4.700;2023-02-15T07:37:31;86.10;;;41.27;;
19705;SDS011;10003;52.506;4.700;2023-02-15T07:39:59;61.13;;;34.23;;
19705;SDS011;10003;52.506;4.700;2023-02-15T07:42:31;59.17;;;32.37;;
19705;SDS011;10003;52.506;4.700;2023-02-15T07:44:59;51.53;;;29.10;;
19705;SDS011;10003;52.506;4.700;2023-02-15T07:47:29;27.57;;;17.60;;
19705;SDS011;10003;52.506;4.700;2023-02-15T07:49:58;61.23;;;32.43;;
19705;SDS011;10003;52.506;4.700;2023-02-15T07:52:26;39.20;;;20.90;;
19705;SDS011;10003;52.506;4.700;2023-02-15T07:54:55;76.80;;;41.07;;
19705;SDS011;10003;52.506;4.700;2023-02-15T07:57:24;74.07;;;47.90;;
19705;SDS011;10003;52.506;4.700;2023-02-15T07:59:53;62.53;;;40.03;;
19705;SDS011;10003;52.506;4.700;2023-02-15T08:02:22;61.60;;;39.63;;
19705;SDS011;10003;52.506;4.700;2023-02-15T08:04:52;37.97;;;25.83;;
19705;SDS011;10003;52.506;4.700;2023-02-15T08:07:21;79.50;;;44.33;;
19705;SDS011;10003;52.506;4.700;2023-02-15T08:09:49;91.07;;;48.37;;
19705;SDS011;10003;52.506;4.700;2023-02-15T08:12:18;55.47;;;33.33;;
19705;SDS011;10003;52.506;4.700;2023-02-15T08:14:46;58.73;;;30.07;;
19705;SDS011;10003;52.506;4.700;2023-02-15T08:17:16;69.43;;;39.53;;
19705;SDS011;10003;52.506;4.700;2023-02-15T08:19:45;66.27;;;38.90;;
19705;SDS011;10003;52.506;4.700;2023-02-15T08:22:14;73.53;;;45.80;;
19705;SDS011;10003;52.506;4.700;2023-02-15T08:24:43;65.17;;;43.43;;
19705;SDS011;10003;52.506;4.700;2023-02-15T08:27:11;69.13;;;45.93;;
19705;SDS011;10003;52.506;4.700;2023-02-15T08:29:40;57.03;;;37.13;;
19705;SDS011;10003;52.506;4.700;2023-02-15T08:32:09;63.13;;;41.07;;
19705;SDS011;10003;52.506;4.700;2023-02-15T08:34:40;60.53;;;44.57;;
19705;SDS011;10003;52.506;4.700;2023-02-15T08:37:09;43.03;;;29.53;;
19705;SDS011;10003;52.506;4.700;2023-02-15T08:39:38;60.73;;;45.30;;
19705;SDS011;10003;52.506;4.700;2023-02-15T08:42:08;65.27;;;46.07;;
19705;SDS011;10003;52.506;4.700;2023-02-15T08:44:36;71.03;;;49.23;;
19705;SDS011;10003;52.506;4.700;2023-02-15T08:47:05;62.00;;;43.60;;
19705;SDS011;10003;52.506;4.700;2023-02-15T08:49:33;37.83;;;27.33;;
19705;SDS011;10003;52.506;4.700;2023-02-15T08:52:04;55.90;;;41.60;;
19705;SDS011;10003;52.506;4.700;2023-02-15T08:54:33;54.53;;;42.23;;
19705;SDS011;10003;52.506;4.700;2023-02-15T08:57:01;60.93;;;43.03;;
19705;SDS011;10003;52.506;4.700;2023-02-15T08:59:30;56.60;;;34.30;;
19705;SDS011;10003;52.506;4.700;2023-02-15T09:01:59;51.37;;;34.47;;
19705;SDS011;10003;52.506;4.700;2023-02-15T09:04:29;60.67;;;45.53;;
19705;SDS011;10003;52.506;4.700;2023-02-15T09:06:58;57.87;;;44.13;;
19705;SDS011;10003;52.506;4.700;2023-02-15T09:09:28;55.43;;;44.30;;
19705;SDS011;10003;52.506;4.700;2023-02-15T09:11:57;55.27;;;38.20;;
19705;SDS011;10003;52.506;4.700;2023-02-15T09:14:26;59.00;;;44.77;;
19705;SDS011;10003;52.506;4.700;2023-02-15T09:16:55;56.60;;;41.53;;
19705;SDS011;10003;52.506;4.700;2023-02-15T09:19:30;51.77;;;39.30;;
19705;SDS011;10003;52.506;4.700;2023-02-15T09:21:58;24.87;;;19.57;;
19705;SDS011;10003;52.506;4.700;2023-02-15T09:24:31;54.30;;;43.80;;
19705;SDS011;10003;52.506;4.700;2023-02-15T09:27:11;46.13;;;28.93;;
19705;SDS011;10003;52.506;4.700;2023-02-15T09:29:40;47.40;;;30.97;;
19705;SDS011;10003;52.506;4.700;2023-02-15T09:32:11;45.57;;;35.07;;
19705;SDS011;10003;52.506;4.700;2023-02-15T09:34:46;48.10;;;34.27;;
19705;SDS011;10003;52.506;4.700;2023-02-15T09:37:15;46.10;;;35.80;;
19705;SDS011;10003;52.506;4.700;2023-02-15T09:39:45;41.70;;;25.63;;
19705;SDS011;10003;52.506;4.700;2023-02-15T09:45:02;38.90;;;27.23;;
19705;SDS011;10003;52.506;4.700;2023-02-15T09:47:36;39.73;;;26.00;;
19705;SDS011;10003;52.506;4.700;2023-02-15T09:50:11;47.87;;;36.37;;
19705;SDS011;10003;52.506;4.700;2023-02-15T09:52:49;27.90;;;21.03;;
19705;SDS011;10003;52.506;4.700;2023-02-15T09:55:24;47.90;;;34.20;;
19705;SDS011;10003;52.506;4.700;2023-02-15T09:57:59;57.33;;;42.90;;
19705;SDS011;10003;52.506;4.700;2023-02-15T10:00:34;54.03;;;41.70;;
19705;SDS011;10003;52.506;4.700;2023-02-15T10:03:10;48.30;;;33.47;;
19705;SDS011;10003;52.506;4.700;2023-02-15T10:05:44;48.17;;;35.30;;
19705;SDS011;10003;52.506;4.700;2023-02-15T10:11:06;36.77;;;26.97;;
19705;SDS011;10003;52.506;4.700;2023-02-15T10:13:57;42.73;;;31.10;;
19705;SDS011;10003;52.506;4.700;2023-02-15T10:16:33;45.80;;;35.70;;
19705;SDS011;10003;52.506;4.700;2023-02-15T10:19:08;48.20;;;35.40;;
19705;SDS011;10003;52.506;4.700;2023-02-15T10:21:42;61.13;;;43.43;;
19705;SDS011;10003;52.506;4.700;2023-02-15T10:24:19;45.00;;;35.90;;
19705;SDS011;10003;52.506;4.700;2023-02-15T10:26:51;54.97;;;41.43;;
19705;SDS011;10003;52.506;4.700;2023-02-15T10:29:25;40.03;;;25.23;;
19705;SDS011;10003;52.506;4.700;2023-02-15T10:31:57;42.70;;;29.07;;
19705;SDS011;10003;52.506;4.700;2023-02-15T10:34:29;27.43;;;20.23;;
19705;SDS011;10003;52.506;4.700;2023-02-15T10:39:47;59.37;;;44.53;;
19705;SDS011;10003;52.506;4.700;2023-02-15T10:42:23;39.40;;;29.93;;
19705;SDS011;10003;52.506;4.700;2023-02-15T10:44:58;39.63;;;27.93;;
19705;SDS011;10003;52.506;4.700;2023-02-15T10:47:33;37.00;;;25.23;;
19705;SDS011;10003;52.506;4.700;2023-02-15T10:50:13;48.37;;;28.47;;
19705;SDS011;10003;52.506;4.700;2023-02-15T10:52:49;25.03;;;20.83;;
19705;SDS011;10003;52.506;4.700;2023-02-15T10:55:24;39.77;;;29.27;;
19705;SDS011;10003;52.506;4.700;2023-02-15T10:57:59;51.30;;;40.07;;
19705;SDS011;10003;52.506;4.700;2023-02-15T11:00:31;49.60;;;33.77;;
19705;SDS011;10003;52.506;4.700;2023-02-15T11:03:16;44.10;;;30.53;;
19705;SDS011;10003;52.506;4.700;2023-02-15T11:05:50;38.30;;;26.53;;
19705;SDS011;10003;52.506;4.700;2023-02-15T11:08:21;44.90;;;28.70;;
19705;SDS011;10003;52.506;4.700;2023-02-15T11:10:53;39.90;;;29.70;;
19705;SDS011;10003;52.506;4.700;2023-02-15T11:13:25;42.70;;;32.93;;
19705;SDS011;10003;52.506;4.700;2023-02-15T11:15:55;41.30;;;32.57;;
19705;SDS011;10003;52.506;4.700;2023-02-15T11:18:26;47.77;;;36.97;;
19705;SDS011;10003;52.506;4.700;2023-02-15T11:20:57;50.73;;;37.63;;
19705;SDS011;10003;52.506;4.700;2023-02-15T11:23:28;53.20;;;35.33;;
19705;SDS011;10003;52.506;4.700;2023-02-15T11:25:57;42.80;;;34.90;;
19705;SDS011;10003;52.506;4.700;2023-02-15T11:28:31;42.00;;;29.20;;
19705;SDS011;10003;52.506;4.700;2023-02-15T11:31:02;24.13;;;12.43;;
19705;SDS011;10003;52.506;4.700;2023-02-15T11:33:33;16.53;;;11.67;;
19705;SDS011;10003;52.506;4.700;2023-02-15T11:36:04;6.73;;;5.57;;
19705;SDS011;10003;52.506;4.700;2023-02-15T11:38:33;33.53;;;23.80;;
19705;SDS011;10003;52.506;4.700;2023-02-15T11:41:07;20.23;;;14.60;;
19705;SDS011;10003;52.506;4.700;2023-02-15T11:43:39;49.67;;;33.87;;
19705;SDS011;10003;52.506;4.700;2023-02-15T11:46:11;45.10;;;30.57;;
19705;SDS011;10003;52.506;4.700;2023-02-15T11:48:41;47.87;;;33.20;;
19705;SDS011;10003;52.506;4.700;2023-02-15T11:51:11;43.67;;;31.30;;
19705;SDS011;10003;52.506;4.700;2023-02-15T11:53:42;42.63;;;29.60;;
19705;SDS011;10003;52.506;4.700;2023-02-15T11:56:13;31.33;;;20.33;;
19705;SDS011;10003;52.506;4.700;2023-02-15T11:58:44;51.27;;;38.67;;
19705;SDS011;10003;52.506;4.700;2023-02-15T12:01:15;52.80;;;29.97;;
19705;SDS011;10003;52.506;4.700;2023-02-15T12:03:47;46.93;;;34.13;;
19705;SDS011;10003;52.506;4.700;2023-02-15T12:06:17;52.10;;;39.33;;
19705;SDS011;10003;52.506;4.700;2023-02-15T12:08:49;51.87;;;38.10;;
19705;SDS011;10003;52.506;4.700;2023-02-15T12:11:20;39.47;;;25.33;;
19705;SDS011;10003;52.506;4.700;2023-02-15T12:13:55;40.93;;;30.20;;
19705;SDS011;10003;52.506;4.700;2023-02-15T12:16:24;43.80;;;32.03;;
19705;SDS011;10003;52.506;4.700;2023-02-15T12:18:54;45.53;;;32.17;;
19705;SDS011;10003;52.506;4.700;2023-02-15T12:21:27;32.67;;;22.90;;
19705;SDS011;10003;52.506;4.700;2023-02-15T12:23:57;33.17;;;25.17;;
19705;SDS011;10003;52.506;4.700;2023-02-15T12:26:27;26.50;;;16.43;;
19705;SDS011;10003;52.506;4.700;2023-02-15T12:28:58;29.93;;;16.33;;
19705;SDS011;10003;52.506;4.700;2023-02-15T12:31:36;19.27;;;12.57;;
19705;SDS011;10003;52.506;4.700;2023-02-15T12:34:22;43.13;;;28.63;;
19705;SDS011;10003;52.506;4.700;2023-02-15T12:36:51;43.67;;;30.33;;
19705;SDS011;10003;52.506;4.700;2023-02-15T12:39:25;15.77;;;13.10;;
19705;SDS011;10003;52.506;4.700;2023-02-15T12:41:58;46.20;;;33.50;;
19705;SDS011;10003;52.506;4.700;2023-02-15T12:44:30;49.93;;;33.10;;
19705;SDS011;10003;52.506;4.700;2023-02-15T12:47:00;40.37;;;30.67;;
19705;SDS011;10003;52.506;4.700;2023-02-15T12:49:30;45.90;;;32.40;;
19705;SDS011;10003;52.506;4.700;2023-02-15T12:52:01;12.20;;;6.93;;
19705;SDS011;10003;52.506;4.700;2023-02-15T12:54:37;11.50;;;7.13;;
19705;SDS011;10003;52.506;4.700;2023-02-15T13:00:00;22.57;;;11.07;;
19705;SDS011;10003;52.506;4.700;2023-02-15T13:02:47;11.13;;;9.27;;
19705;SDS011;10003;52.506;4.700;2023-02-15T13:05:35;9.40;;;6.80;;
19705;SDS011;10003;52.506;4.700;2023-02-15T13:08:11;14.50;;;7.70;;
19705;SDS011;10003;52.506;4.700;2023-02-15T13:10:42;27.03;;;16.70;;
19705;SDS011;10003;52.506;4.700;2023-02-15T13:13:11;27.07;;;15.03;;
19705;SDS011;10003;52.506;4.700;2023-02-15T13:15:49;21.27;;;13.33;;
19705;SDS011;10003;52.506;4.700;2023-02-15T13:18:19;22.80;;;14.83;;
19705;SDS011;10003;52.506;4.700;2023-02-15T13:20:50;18.10;;;11.67;;
19705;SDS011;10003;52.506;4.700;2023-02-15T13:23:22;9.10;;;7.20;;
19705;SDS011;10003;52.506;4.700;2023-02-15T13:25:54;9.53;;;6.57;;
19705;SDS011;10003;52.506;4.700;2023-02-15T13:28:24;11.07;;;7.70;;
19705;SDS011;10003;52.506;4.700;2023-02-15T13:30:56;12.97;;;10.80;;
19705;SDS011;10003;52.506;4.700;2023-02-15T13:33:26;17.00;;;12.60;;
19705;SDS011;10003;52.506;4.700;2023-02-15T13:36:00;30.20;;;19.37;;
19705;SDS011;10003;52.506;4.700;2023-02-15T13:38:42;30.27;;;20.43;;
19705;SDS011;10003;52.506;4.700;2023-02-15T13:41:14;39.07;;;30.30;;
19705;SDS011;10003;52.506;4.700;2023-02-15T13:43:50;42.33;;;35.40;;
19705;SDS011;10003;52.506;4.700;2023-02-15T13:46:42;40.37;;;27.07;;
19705;SDS011;10003;52.506;4.700;2023-02-15T13:49:57;30.30;;;21.90;;
19705;SDS011;10003;52.506;4.700;2023-02-15T13:52:20;6.17;;;5.60;;
19705;SDS011;10003;52.506;4.700;2023-02-15T13:54:56;15.07;;;9.47;;
19705;SDS011;10003;52.506;4.700;2023-02-15T13:57:33;8.40;;;6.30;;
19705;SDS011;10003;52.506;4.700;2023-02-15T14:00:12;8.23;;;7.53;;
19705;SDS011;10003;52.506;4.700;2023-02-15T14:02:54;24.93;;;18.60;;
19705;SDS011;10003;52.506;4.700;2023-02-15T14:05:29;26.33;;;17.33;;
19705;SDS011;10003;52.506;4.700;2023-02-15T14:08:07;11.33;;;9.53;;
19705;SDS011;10003;52.506;4.700;2023-02-15T14:10:47;10.40;;;5.97;;
19705;SDS011;10003;52.506;4.700;2023-02-15T14:16:20;13.03;;;10.10;;
19705;SDS011;10003;52.506;4.700;2023-02-15T14:18:58;17.13;;;10.80;;
19705;SDS011;10003;52.506;4.700;2023-02-15T14:21:34;19.13;;;11.40;;
19705;SDS011;10003;52.506;4.700;2023-02-15T14:24:12;28.10;;;15.13;;
19705;SDS011;10003;52.506;4.700;2023-02-15T14:26:45;19.60;;;12.47;;
19705;SDS011;10003;52.506;4.700;2023-02-15T14:29:17;4.27;;;3.97;;
19705;SDS011;10003;52.506;4.700;2023-02-15T14:31:48;33.40;;;20.93;;
19705;SDS011;10003;52.506;4.700;2023-02-15T14:34:19;31.50;;;19.67;;
19705;SDS011;10003;52.506;4.700;2023-02-15T14:36:49;32.23;;;18.67;;
19705;SDS011;10003;52.506;4.700;2023-02-15T14:39:26;33.00;;;22.23;;
19705;SDS011;10003;52.506;4.700;2023-02-15T14:42:18;15.07;;;10.47;;
19705;SDS011;10003;52.506;4.700;2023-02-15T14:44:49;13.30;;;9.53;;
19705;SDS011;10003;52.506;4.700;2023-02-15T14:47:22;22.67;;;12.27;;
19705;SDS011;10003;52.506;4.700;2023-02-15T14:49:54;21.63;;;12.10;;
19705;SDS011;10003;52.506;4.700;2023-02-15T14:52:22;29.40;;;18.67;;
19705;SDS011;10003;52.506;4.700;2023-02-15T14:55:01;7.73;;;5.10;;
19705;SDS011;10003;52.506;4.700;2023-02-15T14:57:32;19.67;;;11.70;;
19705;SDS011;10003;52.506;4.700;2023-02-15T15:03:01;19.17;;;10.40;;
19705;SDS011;10003;52.506;4.700;2023-02-15T15:05:32;17.00;;;11.23;;
19705;SDS011;10003;52.506;4.700;2023-02-15T15:08:02;37.47;;;26.07;;
19705;SDS011;10003;52.506;4.700;2023-02-15T15:10:43;34.20;;;21.90;;
19705;SDS011;10003;52.506;4.700;2023-02-15T15:18:46;23.87;;;13.43;;
19705;SDS011;10003;52.506;4.700;2023-02-15T15:24:00;18.97;;;11.57;;
19705;SDS011;10003;52.506;4.700;2023-02-15T15:26:31;20.07;;;11.07;;
19705;SDS011;10003;52.506;4.700;2023-02-15T15:29:03;14.70;;;9.13;;
19705;SDS011;10003;52.506;4.700;2023-02-15T15:31:42;30.90;;;24.40;;